Time;durP1;ratioP1;P1;durP2;ratioP2;P2;SDS_P1;SDS_P2;PMS_P1;PMS_P2;Temp;Humidity;BMP_temperature;BMP_pressure;BME280_temperature;BME280_humidity;BME280_pressure;Samples;Min_cycle;Max_cycle;Signal;HPM_P1;HPM_P2
2023/12/04 00:02:24;;;;;;;81.57;29.90;;;;;;;;;;4919009;29;20058;-94
2023/12/04 00:05:07;;;;;;;103.18;33.85;;;;;;;;;;4896958;29;20610;-92
2023/12/04 00:08:13;;;;;;;91.35;30.17;;;-0.30;99.90;;;;;;4907165;29;20050;-92
2023/12/04 00:10:39;;;;;;;112.28;33.67;;;;;;;;;;4923386;29;20147;-89
2023/12/04 00:13:23;;;;;;;91.88;31.98;;;;;;;;;;4909167;29;20145;-94
2023/12/04 00:15:50;;;;;;;96.30;31.38;;;;;;;;;;4924536;29;20417;-92
2023/12/04 00:18:57;;;;;;;95.97;30.25;;;;;;;;;;4921701;29;20469;-92
2023/12/04 00:21:23;;;;;;;97.95;31.90;;;;;;;;;;4897791;29;20051;-87
2023/12/04 00:24:00;;;;;;;101.25;31.85;;;;;;;;;;4891955;29;20127;-93
2023/12/04 00:26:39;;;;;;;91.28;30.05;;;;;;;;;;4906701;29;20051;-91
2023/12/04 00:29:23;;;;;;;101.78;32.25;;;2.60;99.90;;;;;;4904041;29;20047;-94
2023/12/04 00:31:53;;;;;;;88.18;29.48;;;;;;;;;;4897346;29;20114;-92
2023/12/04 00:34:22;;;;;;;104.47;32.88;;;;;;;;;;4896487;29;20091;-90
2023/12/04 00:36:52;;;;;;;101.70;31.42;;;;;;;;;;4889801;29;20087;-93
2023/12/04 00:39:18;;;;;;;92.25;28.10;;;;;;;;;;4900709;29;20127;-89
2023/12/04 00:41:44;;;;;;;122.70;35.95;;;;;;;;;;4898421;29;20138;-89
2023/12/04 00:44:10;;;;;;;129.10;35.53;;;;;;;;;;4888905;29;20054;-96
2023/12/04 00:46:39;;;;;;;105.57;32.17;;;;;;;;;;4902811;29;20039;-90
2023/12/04 00:49:06;;;;;;;129.63;34.10;;;;;;;;;;4900418;29;20116;-90
2023/12/04 00:51:39;;;;;;;99.88;31.27;;;-0.30;99.90;;;;;;4896319;29;20051;-91
2023/12/04 00:54:06;;;;;;;151.75;34.90;;;;;;;;;;4898227;29;20078;-90
2023/12/04 00:56:33;;;;;;;111.40;33.30;;;-0.20;99.90;;;;;;4895263;29;20059;-87
2023/12/04 00:58:59;;;;;;;118.05;33.72;;;;;;;;;;4886807;29;20063;-91
2023/12/04 01:01:25;;;;;;;108.82;33.03;;;;;;;;;;4884455;29;20072;-91
2023/12/04 01:03:51;;;;;;;117.25;33.85;;;;;;;;;;4892922;29;20349;-91
2023/12/04 01:06:22;;;;;;;116.00;33.65;;;-0.20;99.90;;;;;;4889325;29;20063;-89
2023/12/04 01:08:57;;;;;;;104.03;32.25;;;;;;;;;;4886561;29;20048;-93
2023/12/04 01:11:23;;;;;;;130.57;33.25;;;;;;;;;;4890390;29;20056;-90
2023/12/04 01:14:02;;;;;;;108.55;33.85;;;-0.20;99.90;;;;;;4902828;29;20063;-91
2023/12/04 01:16:28;;;;;;;109.15;32.00;;;;;;;;;;4894749;29;20051;-92
2023/12/04 01:18:54;;;;;;;125.20;33.50;;;;;;;;;;4899554;29;20047;-92
2023/12/04 01:21:21;;;;;;;145.82;36.75;;;;;;;;;;4889043;29;20048;-91
2023/12/04 01:23:49;;;;;;;123.15;35.10;;;;;;;;;;4886485;29;20044;-93
2023/12/04 01:26:23;;;;;;;133.30;34.53;;;;;;;;;;4901059;29;20043;-94
2023/12/04 01:28:50;;;;;;;119.60;33.55;;;-0.20;99.90;;;;;;4881347;29;20097;-93
2023/12/04 01:31:23;;;;;;;117.47;34.58;;;-0.30;99.90;;;;;;4891441;29;20142;-92
2023/12/04 01:33:52;;;;;;;109.15;31.92;;;-0.30;99.90;;;;;;4896541;29;20119;-91
2023/12/04 01:36:18;;;;;;;130.27;34.55;;;;;;;;;;4905450;29;20063;-88
2023/12/04 01:38:44;;;;;;;122.53;33.97;;;;;;;;;;4884003;29;20143;-92
2023/12/04 01:41:10;;;;;;;141.45;36.53;;;;;;;;;;4896355;29;20062;-87
2023/12/04 01:43:36;;;;;;;125.13;33.15;;;;;;;;;;4884931;29;20727;-91
2023/12/04 01:46:06;;;;;;;151.10;35.47;;;;;;;;;;4884923;29;20498;-93
2023/12/04 01:48:32;;;;;;;130.25;35.72;;;;;;;;;;4889161;29;20070;-91
2023/12/04 01:50:58;;;;;;;147.98;35.42;;;;;;;;;;4887310;29;20185;-92
2023/12/04 01:53:25;;;;;;;141.50;35.83;;;;;;;;;;4884918;29;20059;-93
2023/12/04 01:55:51;;;;;;;135.68;36.40;;;;;;;;;;4898253;29;20059;-93
2023/12/04 01:58:25;;;;;;;120.57;33.85;;;-0.20;99.90;;;;;;4894124;29;20150;-91
2023/12/04 02:00:51;;;;;;;153.38;36.22;;;;;;;;;;4896486;29;20048;-90
2023/12/04 02:03:17;;;;;;;139.27;36.15;;;;;;;;;;4893130;29;20138;-89
2023/12/04 02:05:46;;;;;;;131.93;33.97;;;;;;;;;;4899911;29;20143;-94
2023/12/04 02:08:13;;;;;;;139.48;35.47;;;;;;;;;;4894072;29;20115;-93
2023/12/04 02:10:39;;;;;;;202.48;37.17;;;;;;;;;;4887458;29;20138;-91
2023/12/04 02:13:05;;;;;;;154.65;34.67;;;;;;;;;;4904887;29;20051;-93
2023/12/04 02:15:34;;;;;;;155.88;35.22;;;;;;;;;;4897700;29;20111;-94
2023/12/04 02:18:04;;;;;;;159.13;36.03;;;;;;;;;;4894314;29;20139;-94
2023/12/04 02:20:43;;;;;;;126.38;34.60;;;;;;;;;;4884810;29;20557;-89
2023/12/04 02:23:09;;;;;;;208.10;37.50;;;;;;;;;;4898743;29;20055;-94
2023/12/04 02:25:41;;;;;;;164.32;35.95;;;;;;;;;;4901961;29;20036;-93
2023/12/04 02:28:15;;;;;;;137.90;33.92;;;-0.20;99.90;;;;;;4898966;29;20853;-90
2023/12/04 02:30:51;;;;;;;130.13;34.92;;;;;;;;;;4885730;29;20869;-92
2023/12/04 02:33:24;;;;;;;156.45;35.72;;;-0.20;99.90;;;;;;4865884;29;20133;-91
2023/12/04 02:35:53;;;;;;;;;;;-0.20;99.90;;;;;;4892500;29;20197;-91
2023/12/04 02:38:32;;;;;;;161.17;35.20;;;;;;;;;;4918854;29;19918;-92
2023/12/04 02:41:04;;;;;;;174.05;36.22;;;;;;;;;;4899936;29;20680;-94
2023/12/04 02:43:43;;;;;;;173.90;37.08;;;;;;;;;;4886356;29;20191;-93
2023/12/04 02:46:15;;;;;;;165.45;36.25;;;;;;;;;;4891190;29;20051;-93
2023/12/04 02:48:41;;;;;;;178.88;38.97;;;;;;;;;;4902980;29;20158;-90
2023/12/04 02:51:11;;;;;;;185.48;38.00;;;;;;;;;;4895191;29;20048;-93
2023/12/04 02:54:03;;;;;;;189.40;38.78;;;;;;;;;;4908713;29;20044;-92
2023/12/04 02:56:32;;;;;;;158.25;35.72;;;;;;;;;;4879512;29;20052;-95
2023/12/04 02:58:59;;;;;;;184.32;35.65;;;;;;;;;;4881277;29;20044;-90
2023/12/04 03:01:38;;;;;;;149.93;38.22;;;;;;;;;;4879977;29;20094;-94
2023/12/04 03:04:05;;;;;;;181.07;37.30;;;;;;;;;;4903515;29;20056;-89
2023/12/04 03:06:34;;;;;;;137.20;33.72;;;;;;;;;;4907085;29;20548;-94
2023/12/04 03:09:00;;;;;;;176.85;36.53;;;;;;;;;;4897439;29;20123;-94
2023/12/04 03:11:26;;;;;;;197.32;38.75;;;;;;;;;;4888881;29;20508;-94
2023/12/04 03:13:52;;;;;;;153.48;37.10;;;;;;;;;;4893680;29;20059;-96
2023/12/04 03:16:22;;;;;;;154.70;34.75;;;;;;;;;;4883707;29;20055;-91
2023/12/04 03:18:48;;;;;;;132.02;34.78;;;;;;;;;;4897076;29;20056;-91
2023/12/04 03:21:20;;;;;;;153.07;37.47;;;;;;;;;;4885772;29;20518;-92
2023/12/04 03:23:49;;;;;;;;;;;-0.10;99.90;;;;;;4893231;29;20081;-92
2023/12/04 03:26:15;;;;;;;125.55;34.10;;;;;;;;;;4904658;29;19923;-93
2023/12/04 03:28:41;;;;;;;141.25;34.33;;;;;;;;;;4902656;29;20115;-95
2023/12/04 03:31:08;;;;;;;145.27;35.03;;;;;;;;;;4907748;28;20078;-92
2023/12/04 03:33:34;;;;;;;154.55;36.75;;;;;;;;;;4906718;29;20059;-86
2023/12/04 03:36:00;;;;;;;171.40;37.47;;;;;;;;;;4906690;29;20043;-93
2023/12/04 03:38:30;;;;;;;178.23;36.70;;;;;;;;;;4892411;29;20059;-92
2023/12/04 03:40:57;;;;;;;138.27;35.38;;;;;;;;;;4891858;29;20047;-94
2023/12/04 03:43:23;;;;;;;150.75;34.53;;;;;;;;;;4900733;29;20055;-92
2023/12/04 03:45:49;;;;;;;172.52;36.63;;;;;;;;;;4901635;29;20059;-93
2023/12/04 03:48:16;;;;;;;157.05;37.78;;;;;;;;;;4902445;29;20055;-92
2023/12/04 03:50:42;;;;;;;154.13;35.78;;;;;;;;;;4895629;29;20580;-96
2023/12/04 03:53:13;;;;;;;153.13;34.15;;;;;;;;;;4899195;29;20051;-92
2023/12/04 03:55:41;;;;;;;126.63;34.95;;;;;;;;;;4920557;29;20441;-94
2023/12/04 03:58:08;;;;;;;148.27;33.90;;;;;;;;;;4901997;29;20048;-93
2023/12/04 04:00:35;;;;;;;151.38;36.10;;;;;;;;;;4902681;29;20855;-95
2023/12/04 04:03:01;;;;;;;131.32;35.33;;;;;;;;;;4901801;29;20051;-95
2023/12/04 04:05:28;;;;;;;182.45;36.70;;;;;;;;;;4909768;29;20044;-92
2023/12/04 04:07:54;;;;;;;160.73;35.70;;;;;;;;;;4916651;29;20777;-94
2023/12/04 04:10:20;;;;;;;167.30;36.85;;;;;;;;;;4910018;29;20048;-92
2023/12/04 04:12:46;;;;;;;141.77;33.05;;;;;;;;;;4905226;29;20055;-94
2023/12/04 04:15:13;;;;;;;124.00;33.10;;;;;;;;;;4926086;29;20059;-89
2023/12/04 04:17:42;;;;;;;129.23;34.95;;;;;;;;;;4902746;29;20067;-94
2023/12/04 04:20:11;;;;;;;131.73;34.08;;;;;;;;;;4894500;29;20058;-96
2023/12/04 04:22:39;;;;;;;121.13;31.90;;;;;;;;;;4907256;29;20052;-94
2023/12/04 04:25:12;;;;;;;152.90;33.25;;;;;;;;;;4897094;29;20063;-94
2023/12/04 04:27:38;;;;;;;161.85;35.63;;;;;;;;;;4916760;29;20085;-91
2023/12/04 04:30:05;;;;;;;143.25;35.13;;;;;;;;;;4891792;29;20040;-92
2023/12/04 04:32:31;;;;;;;121.93;32.80;;;;;;;;;;4890924;29;20421;-95
2023/12/04 04:35:22;;;;;;;127.47;32.90;;;-0.20;99.90;;;;;;4892299;29;20526;-96
2023/12/04 04:37:48;;;;;;;133.18;33.38;;;;;;;;;;4893372;29;20056;-95
2023/12/04 04:40:14;;;;;;;132.73;34.58;;;;;;;;;;4913208;29;20059;-92
2023/12/04 04:42:46;;;;;;;146.55;35.22;;;-0.20;99.90;;;;;;4907185;29;20052;-96
2023/12/04 04:45:12;;;;;;;155.65;34.75;;;;;;;;;;4925792;29;20059;-90
2023/12/04 04:47:38;;;;;;;109.50;31.10;;;;;;;;;;4903346;29;20052;-90
2023/12/04 04:50:08;;;;;;;164.70;33.78;;;;;;;;;;4888008;29;20474;-88
2023/12/04 04:52:34;;;;;;;162.30;37.67;;;;;;;;;;4897251;29;20055;-92
2023/12/04 04:55:00;;;;;;;121.97;32.80;;;;;;;;;;4918263;29;20060;-94
2023/12/04 04:57:26;;;;;;;149.95;32.60;;;;;;;;;;4891944;29;20063;-90
2023/12/04 04:59:52;;;;;;;147.85;34.60;;;;;;;;;;4909369;29;20121;-92
2023/12/04 05:02:18;;;;;;;124.07;32.97;;;;;;;;;;4906209;29;20123;-92
2023/12/04 05:04:44;;;;;;;129.32;33.40;;;;;;;;;;4893493;29;20094;-93
2023/12/04 05:07:11;;;;;;;119.90;32.72;;;;;;;;;;4885555;29;20067;-94
2023/12/04 05:09:37;;;;;;;155.98;35.72;;;;;;;;;;4892379;29;20048;-93
2023/12/04 05:12:03;;;;;;;165.27;35.55;;;;;;;;;;4916393;29;20048;-95
2023/12/04 05:14:29;;;;;;;165.02;33.47;;;;;;;;;;4892366;29;20065;-96
2023/12/04 05:16:55;;;;;;;148.00;34.55;;;;;;;;;;4898491;29;21022;-94
2023/12/04 05:19:22;;;;;;;117.43;29.55;;;;;;;;;;4889168;29;20136;-95
2023/12/04 05:21:48;;;;;;;156.93;33.25;;;-0.20;99.90;;;;;;4892069;29;20052;-91
2023/12/04 05:24:15;;;;;;;117.47;30.85;;;;;;;;;;4885599;29;20060;-90
2023/12/04 05:26:41;;;;;;;157.35;34.00;;;;;;;;;;4892971;29;20123;-90
2023/12/04 05:29:07;;;;;;;116.28;31.10;;;;;;;;;;4890674;29;20360;-95
2023/12/04 05:31:36;;;;;;;132.95;33.20;;;;;;;;;;4887295;29;20056;-92
2023/12/04 05:34:02;;;;;;;131.48;31.15;;;;;;;;;;4892760;29;20055;-92
2023/12/04 05:36:33;;;;;;;101.72;31.35;;;-0.10;99.90;;;;;;4899049;29;20055;-90
2023/12/04 05:39:00;;;;;;;118.28;31.48;;;;;;;;;;4902627;29;20052;-96
2023/12/04 05:41:26;;;;;;;131.35;30.65;;;;;;;;;;4895771;29;20166;-92
2023/12/04 05:43:52;;;;;;;104.68;30.80;;;;;;;;;;4888085;29;20059;-91
2023/12/04 05:46:22;;;;;;;123.40;29.70;;;;;;;;;;4907240;29;20066;-91
2023/12/04 05:48:48;;;;;;;130.77;30.88;;;;;;;;;;4902928;29;20151;-94
2023/12/04 05:51:15;;;;;;;115.60;29.45;;;;;;;;;;4896365;29;20138;-95
2023/12/04 05:53:41;;;;;;;131.38;31.20;;;;;;;;;;4913095;29;20107;-93
2023/12/04 05:56:08;;;;;;;122.80;31.20;;;;;;;;;;4897684;29;20114;-94
2023/12/04 05:58:35;;;;;;;119.95;31.15;;;;;;;;;;4912787;29;20168;-94
2023/12/04 06:01:01;;;;;;;107.20;27.92;;;;;;;;;;4894193;29;20052;-92
2023/12/04 06:03:27;;;;;;;94.78;27.92;;;;;;;;;;4892672;29;20050;-92
2023/12/04 06:05:53;;;;;;;139.85;31.20;;;;;;;;;;4897253;29;20104;-92
2023/12/04 06:08:19;;;;;;;97.90;30.10;;;;;;;;;;4892052;29;20143;-91
2023/12/04 06:10:47;;;;;;;102.43;28.52;;;;;;;;;;4891053;29;20060;-95
2023/12/04 06:13:13;;;;;;;113.88;32.65;;;;;;;;;;4898034;29;20568;-94
2023/12/04 06:15:39;;;;;;;126.72;29.58;;;;;;;;;;4898538;29;20051;-89
2023/12/04 06:18:15;;;;;;;137.15;31.40;;;;;;;;;;4898630;29;20052;-93
2023/12/04 06:20:43;;;;;;;115.63;27.98;;;;;;;;;;4901347;29;20055;-92
2023/12/04 06:23:13;;;;;;;116.93;31.15;;;;;;;;;;4891538;29;20047;-93
2023/12/04 06:25:39;;;;;;;158.15;31.50;;;;;;;;;;4905234;29;20054;-91
2023/12/04 06:28:05;;;;;;;128.63;31.00;;;;;;;;;;4893001;29;20048;-89
2023/12/04 06:30:32;;;;;;;124.93;30.85;;;;;;;;;;4900034;29;20054;-92
2023/12/04 06:32:58;;;;;;;134.98;29.65;;;;;;;;;;4899490;29;20067;-92
2023/12/04 06:35:24;;;;;;;130.52;30.40;;;;;;;;;;4890886;29;20130;-90
2023/12/04 06:37:54;;;;;;;103.75;28.00;;;;;;;;;;4911025;29;20056;-93
2023/12/04 06:40:20;;;;;;;155.27;34.30;;;;;;;;;;4899625;29;20047;-92
2023/12/04 06:42:46;;;;;;;142.50;31.77;;;;;;;;;;4889178;29;20517;-90
2023/12/04 06:45:17;;;;;;;138.23;28.42;;;;;;;;;;4885380;29;20105;-93
2023/12/04 06:47:45;;;;;;;111.85;30.33;;;-0.10;99.90;;;;;;4918010;29;20819;-90
2023/12/04 06:50:11;;;;;;;113.90;30.15;;;;;;;;;;4884921;29;20055;-91
2023/12/04 06:52:38;;;;;;;112.10;29.38;;;;;;;;;;4924330;29;20052;-93
2023/12/04 06:55:13;;;;;;;132.00;29.08;;;;;;;;;;4900934;29;20052;-93
2023/12/04 06:57:39;;;;;;;81.97;28.50;;;;;;;;;;4899930;29;20409;-93
2023/12/04 07:00:08;;;;;;;111.95;28.20;;;;;;;;;;4890788;29;20056;-92
2023/12/04 07:02:34;;;;;;;118.47;29.88;;;-0.30;99.90;;;;;;4885286;29;20056;-93
2023/12/04 07:05:00;;;;;;;89.13;26.58;;;;;;;;;;4914272;29;20052;-93
2023/12/04 07:07:26;;;;;;;116.68;27.63;;;;;;;;;;4889684;29;20107;-92
2023/12/04 07:09:52;;;;;;;107.40;28.63;;;;;;;;;;4899131;29;20111;-92
2023/12/04 07:12:18;;;;;;;89.65;25.90;;;-0.20;99.90;;;;;;4900008;29;20032;-93
2023/12/04 07:14:44;;;;;;;72.43;24.48;;;;;;;;;;4885743;29;20056;-93
2023/12/04 07:17:11;;;;;;;62.10;24.25;;;;;;;;;;4895056;29;20055;-93
2023/12/04 07:19:37;;;;;;;79.05;24.25;;;;;;;;;;4892360;29;20513;-93
2023/12/04 07:22:03;;;;;;;68.25;24.42;;;;;;;;;;4903183;29;20070;-91
2023/12/04 07:24:36;;;;;;;84.68;25.88;;;;;;;;;;4911984;29;20040;-91
2023/12/04 07:27:09;;;;;;;;;;;-0.30;99.90;;;;;;4892702;29;20048;-91
2023/12/04 07:29:37;;;;;;;91.45;24.30;;;;;;;;;;4906426;29;19934;-93
2023/12/04 07:32:04;;;;;;;61.33;22.45;;;;;;;;;;4911910;29;20056;-93
2023/12/04 07:34:41;;;;;;;72.22;23.13;;;;;;;;;;4901993;29;20058;-93
2023/12/04 07:37:07;;;;;;;79.60;23.48;;;;;;;;;;4916525;29;20039;-91
2023/12/04 07:39:33;;;;;;;61.03;23.10;;;;;;;;;;4890479;29;20055;-91
2023/12/04 07:41:59;;;;;;;56.35;23.08;;;;;;;;;;4902178;29;20048;-90
2023/12/04 07:44:25;;;;;;;67.05;24.92;;;;;;;;;;4902230;29;20048;-92
2023/12/04 07:46:53;;;;;;;73.20;23.50;;;;;;;;;;4883426;29;20063;-92
2023/12/04 07:49:19;;;;;;;64.03;19.77;;;;;;;;;;4889746;29;20048;-91
2023/12/04 07:51:48;;;;;;;59.42;20.88;;;;;;;;;;4890455;29;20063;-91
2023/12/04 07:54:14;;;;;;;70.15;22.88;;;;;;;;;;4898463;29;20059;-92
2023/12/04 07:56:40;;;;;;;56.63;22.13;;;;;;;;;;4882132;29;20059;-93
2023/12/04 07:59:06;;;;;;;54.78;21.55;;;;;;;;;;4895847;29;20083;-94
2023/12/04 08:01:32;;;;;;;63.72;21.38;;;;;;;;;;4894950;29;20150;-91
2023/12/04 08:03:58;;;;;;;59.95;20.17;;;;;;;;;;4909811;29;20142;-92
2023/12/04 08:06:24;;;;;;;48.03;20.08;;;;;;;;;;4896151;29;20055;-91
2023/12/04 08:08:50;;;;;;;54.75;19.23;;;;;;;;;;4889048;29;20131;-92
2023/12/04 08:11:17;;;;;;;55.47;19.83;;;;;;;;;;4888844;29;20052;-90
2023/12/04 08:13:43;;;;;;;49.25;18.85;;;;;;;;;;4883383;29;20108;-91
2023/12/04 08:16:20;;;;;;;53.30;19.73;;;;;;;;;;4890056;29;20132;-89
2023/12/04 08:18:49;;;;;;;44.25;18.00;;;;;;;;;;4891695;29;20108;-93
2023/12/04 08:21:15;;;;;;;53.38;20.13;;;;;;;;;;4900223;29;20047;-92
2023/12/04 08:23:41;;;;;;;41.53;16.48;;;;;;;;;;4900735;29;20144;-93
2023/12/04 08:26:07;;;;;;;57.85;20.00;;;;;;;;;;4887539;29;20112;-89
2023/12/04 08:28:41;;;;;;;47.88;18.98;;;;;;;;;;4917427;29;20162;-91
2023/12/04 08:31:08;;;;;;;38.25;17.27;;;-0.10;99.90;;;;;;4917968;29;20055;-91
2023/12/04 08:33:44;;;;;;;44.88;18.58;;;;;;;;;;4912089;29;20059;-90
2023/12/04 08:36:11;;;;;;;39.53;19.15;;;;;;;;;;4901783;29;20520;-91
2023/12/04 08:38:37;;;;;;;40.10;17.23;;;;;;;;;;4895278;29;20048;-91
2023/12/04 08:41:06;;;;;;;36.25;17.67;;;;;;;;;;4893825;29;20087;-91
2023/12/04 08:43:33;;;;;;;35.35;17.33;;;;;;;;;;4888140;29;20051;-91
2023/12/04 08:46:00;;;;;;;41.70;16.73;;;;;;;;;;4896783;29;20516;-90
2023/12/04 08:48:26;;;;;;;50.25;18.63;;;;;;;;;;4888570;29;20075;-92
2023/12/04 08:50:52;;;;;;;38.83;16.52;;;;;;;;;;4902260;29;20110;-92
2023/12/04 08:53:18;;;;;;;36.60;16.58;;;;;;;;;;4889879;29;20083;-91
2023/12/04 08:55:44;;;;;;;38.40;16.02;;;;;;;;;;4889230;29;20088;-89
2023/12/04 08:58:43;;;;;;;35.75;16.15;;;-0.10;99.90;;;;;;4910726;29;20044;-92
2023/12/04 09:01:12;;;;;;;30.40;14.60;;;;;;;;;;4910678;29;20175;-96
2023/12/04 09:03:49;;;;;;;35.80;15.05;;;;;;;;;;4905974;29;20052;-94
2023/12/04 09:06:21;;;;;;;34.72;15.70;;;;;;;;;;4888155;29;20100;-91
2023/12/04 09:08:47;;;;;;;32.88;16.15;;;;;;;;;;4912057;29;20508;-92
2023/12/04 09:11:14;;;;;;;30.13;14.48;;;;;;;;;;4886349;29;20055;-94
2023/12/04 09:13:44;;;;;;;41.28;16.50;;;;;;;;;;4891843;29;20730;-93
2023/12/04 09:16:11;;;;;;;35.03;15.60;;;;;;;;;;4896239;29;20093;-89
2023/12/04 09:18:37;;;;;;;41.00;16.13;;;;;;;;;;4897698;29;20144;-94
2023/12/04 09:21:04;;;;;;;33.50;16.38;;;;;;;;;;4887041;29;20067;-93
2023/12/04 09:23:36;;;;;;;30.45;14.65;;;;;;;;;;4907865;29;20051;-88
2023/12/04 09:26:02;;;;;;;34.60;14.50;;;;;;;;;;4892199;29;20075;-93
2023/12/04 09:28:29;;;;;;;30.20;14.95;;;;;;;;;;4900885;29;20080;-91
2023/12/04 09:31:02;;;;;;;39.53;16.17;;;;;;;;;;4897483;29;20055;-88
2023/12/04 09:33:28;;;;;;;35.60;16.75;;;;;;;;;;4911488;29;20520;-93
2023/12/04 09:35:54;;;;;;;37.38;15.20;;;;;;;;;;4895955;29;20406;-91
2023/12/04 09:38:20;;;;;;;45.70;15.73;;;;;;;;;;4889158;29;20075;-91
2023/12/04 09:40:47;;;;;;;39.97;14.55;;;;;;;;;;4889485;29;20055;-89
2023/12/04 09:43:13;;;;;;;38.58;15.27;;;;;;;;;;4891691;29;20044;-92
2023/12/04 09:45:43;;;;;;;33.15;14.45;;;;;;;;;;4915268;29;20043;-90
2023/12/04 09:48:09;;;;;;;32.35;15.70;;;;;;;;;;4906831;29;20569;-89
2023/12/04 09:50:36;;;;;;;32.67;15.63;;;0.20;99.90;;;;;;4888698;29;20052;-93
2023/12/04 09:53:03;;;;;;;29.58;14.60;;;0.00;99.90;;;;;;4896772;29;20143;-93
2023/12/04 09:55:29;;;;;;;27.23;12.30;;;;;;;;;;4902886;29;20388;-91
2023/12/04 09:57:55;;;;;;;27.88;14.27;;;;;;;;;;4899810;29;20044;-88
2023/12/04 10:00:22;;;;;;;26.50;13.35;;;;;;;;;;4911814;29;20048;-91
2023/12/04 10:02:48;;;;;;;33.95;13.85;;;;;;;;;;4901255;29;20079;-90
2023/12/04 10:05:14;;;;;;;23.88;12.15;;;;;;;;;;4902327;29;20150;-92
2023/12/04 10:07:41;;;;;;;32.90;14.38;;;;;;;;;;4904107;29;20055;-91
2023/12/04 10:10:08;;;;;;;24.98;13.63;;;;;;;;;;4898074;29;20070;-91
2023/12/04 10:12:35;;;;;;;27.98;14.35;;;0.20;99.90;;;;;;4903696;29;20116;-94
2023/12/04 10:15:09;;;;;;;30.88;13.98;;;0.20;99.90;;;;;;4904091;29;20805;-90
2023/12/04 10:17:40;;;;;;;26.33;12.48;;;0.20;99.90;;;;;;4906596;29;20130;-91
2023/12/04 10:20:15;;;;;;;22.67;11.82;;;0.20;99.90;;;;;;4890527;29;20525;-91
2023/12/04 10:22:59;;;;;;;27.45;13.45;;;0.20;99.90;;;;;;4904139;29;20060;-91
2023/12/04 10:25:30;;;;;;;27.15;13.18;;;0.20;99.90;;;;;;4899829;29;20046;-91
2023/12/04 10:28:15;;;;;;;29.10;14.87;;;0.30;99.90;;;;;;4891372;29;20047;-94
2023/12/04 10:30:42;;;;;;;27.33;12.90;;;;;;;;;;4913413;29;20048;-91
2023/12/04 10:33:09;;;;;;;26.55;11.82;;;;;;;;;;4922537;29;20028;-90
2023/12/04 10:35:36;;;;;;;22.52;11.50;;;;;;;;;;4914481;29;20099;-91
2023/12/04 10:38:03;;;;;;;19.88;10.25;;;;;;;;;;4910078;29;20039;-89
2023/12/04 10:40:33;;;;;;;25.20;10.35;;;0.30;99.90;;;;;;4909697;29;20107;-89
2023/12/04 10:43:12;;;;;;;26.42;11.82;;;0.20;99.90;;;;;;4906846;29;20270;-88
2023/12/04 10:45:40;;;;;;;23.55;12.18;;;0.20;99.90;;;;;;4895278;29;20063;-91
2023/12/04 10:48:07;;;;;;;24.45;11.15;;;0.30;99.90;;;;;;4905534;29;20134;-89
2023/12/04 10:50:35;;;;;;;19.75;10.95;;;0.90;99.90;;;;;;4910481;29;20052;-88
2023/12/04 10:53:09;;;;;;;24.85;12.23;;;0.30;99.90;;;;;;4900063;29;20532;-89
2023/12/04 10:55:35;;;;;;;25.30;10.95;;;;;;;;;;4904987;29;20188;-88
2023/12/04 10:58:05;;;;;;;17.48;10.88;;;0.30;99.90;;;;;;4889662;29;20044;-91
2023/12/04 11:00:33;;;;;;;21.23;11.68;;;0.30;99.90;;;;;;4912288;29;20098;-90
2023/12/04 11:03:03;;;;;;;24.27;12.20;;;;;;;;;;4909290;29;20687;-90
2023/12/04 11:05:31;;;;;;;27.42;12.45;;;;;;;;;;4913513;29;20462;-90
2023/12/04 11:08:01;;;;;;;22.58;11.48;;;;;;;;;;4923273;29;20115;-93
2023/12/04 11:10:28;;;;;;;21.17;11.30;;;;;;;;;;4889668;29;20506;-85
2023/12/04 11:13:10;;;;;;;20.33;11.93;;;0.50;99.90;;;;;;4884355;29;20154;-92
2023/12/04 11:15:40;;;;;;;22.13;10.48;;;;;;;;;;4898835;29;20197;-90
2023/12/04 11:18:08;;;;;;;22.45;11.82;;;;;;;;;;4888426;29;20061;-88
2023/12/04 11:20:37;;;;;;;21.73;10.30;;;;;;;;;;4895042;29;20063;-90
2023/12/04 11:23:06;;;;;;;21.08;11.52;;;;;;;;;;4900029;29;20474;-87
2023/12/04 11:25:34;;;;;;;20.50;10.35;;;;;;;;;;4887436;29;20617;-88
2023/12/04 11:28:01;;;;;;;24.25;12.07;;;;;;;;;;4885099;29;20052;-89
2023/12/04 11:30:29;;;;;;;17.77;10.57;;;;;;;;;;4890840;29;20050;-90
2023/12/04 11:32:58;;;;;;;19.30;11.63;;;;;;;;;;4905422;29;20091;-89
2023/12/04 11:35:28;;;;;;;22.65;10.82;;;;;;;;;;4904191;29;20067;-86
2023/12/04 11:37:54;;;;;;;21.15;12.50;;;;;;;;;;4893777;29;20120;-87
2023/12/04 11:40:21;;;;;;;16.23;9.38;;;;;;;;;;4893116;29;20059;-87
2023/12/04 11:42:47;;;;;;;18.77;11.30;;;;;;;;;;4888575;29;20052;-87
2023/12/04 11:45:20;;;;;;;22.85;10.70;;;;;;;;;;4906497;29;20109;-87
2023/12/04 11:47:51;;;;;;;18.80;10.05;;;;;;;;;;4905225;29;20052;-88
2023/12/04 11:50:19;;;;;;;23.00;10.82;;;;;;;;;;4901244;29;20052;-88
2023/12/04 11:52:48;;;;;;;20.30;9.80;;;;;;;;;;4897186;29;20060;-89
2023/12/04 11:55:18;;;;;;;21.15;10.95;;;;;;;;;;4880010;29;20052;-93
2023/12/04 11:57:45;;;;;;;18.45;9.55;;;;;;;;;;4905999;29;20135;-88
2023/12/04 12:00:11;;;;;;;20.05;11.25;;;;;;;;;;4906319;29;20058;-91
2023/12/04 12:02:41;;;;;;;24.27;11.25;;;;;;;;;;4884954;29;20142;-89
2023/12/04 12:05:07;;;;;;;19.83;10.05;;;;;;;;;;4905096;29;20624;-88
2023/12/04 12:07:34;;;;;;;21.00;11.10;;;;;;;;;;4883008;29;20083;-91
2023/12/04 12:10:01;;;;;;;18.95;10.48;;;;;;;;;;4907336;29;20135;-88
2023/12/04 12:12:27;;;;;;;16.25;9.43;;;;;;;;;;4907312;29;20059;-88
2023/12/04 12:14:53;;;;;;;20.65;11.77;;;;;;;;;;4889898;29;20056;-88
2023/12/04 12:17:20;;;;;;;17.77;10.32;;;;;;;;;;4905814;29;20087;-94
2023/12/04 12:19:46;;;;;;;18.50;10.65;;;;;;;;;;4890375;29;20512;-87
2023/12/04 12:22:12;;;;;;;18.45;10.35;;;;;;;;;;4896727;29;20056;-90
2023/12/04 12:24:38;;;;;;;21.08;10.88;;;;;;;;;;4890897;29;20482;-89
2023/12/04 12:27:05;;;;;;;20.88;11.35;;;;;;;;;;4889162;29;20083;-90
2023/12/04 12:29:31;;;;;;;19.50;10.38;;;;;;;;;;4889303;29;20059;-88
2023/12/04 12:31:57;;;;;;;16.85;9.60;;;;;;;;;;4924738;29;20048;-90
2023/12/04 12:34:24;;;;;;;18.70;9.38;;;;;;;;;;4892338;29;20524;-92
2023/12/04 12:36:50;;;;;;;18.48;11.00;;;;;;;;;;4901142;29;20060;-87
2023/12/04 12:39:16;;;;;;;18.67;10.13;;;;;;;;;;4892679;29;20063;-87
2023/12/04 12:41:50;;;;;;;18.92;10.38;;;;;;;;;;4890706;29;20099;-87
2023/12/04 12:44:16;;;;;;;20.42;11.48;;;;;;;;;;4890173;29;20100;-87
2023/12/04 12:46:42;;;;;;;20.67;11.43;;;;;;;;;;4879162;29;20059;-90
2023/12/04 12:49:09;;;;;;;22.48;11.10;;;;;;;;;;4879492;29;20059;-90
2023/12/04 12:51:36;;;;;;;18.10;9.73;;;;;;;;;;4879171;29;20059;-89
2023/12/04 12:54:03;;;;;;;17.38;9.25;;;;;;;;;;4895191;29;20043;-87
2023/12/04 12:56:31;;;;;;;18.60;10.20;;;;;;;;;;4908940;29;20508;-88
2023/12/04 12:58:57;;;;;;;20.05;12.80;;;;;;;;;;4880526;29;20048;-88
2023/12/04 13:01:25;;;;;;;20.15;11.63;;;;;;;;;;4900287;29;20056;-87
2023/12/04 13:03:53;;;;;;;20.08;11.57;;;;;;;;;;4893657;29;20048;-87
2023/12/04 13:06:19;;;;;;;18.05;10.63;;;;;;;;;;4890068;29;20568;-90
2023/12/04 13:08:48;;;;;;;18.27;10.57;;;;;;;;;;4892351;29;20043;-89
2023/12/04 13:11:14;;;;;;;23.88;13.68;;;;;;;;;;4915850;29;20477;-89
2023/12/04 13:13:42;;;;;;;18.83;10.32;;;;;;;;;;4902014;29;20164;-91
2023/12/04 13:16:08;;;;;;;17.27;10.50;;;;;;;;;;4893795;29;20136;-89
2023/12/04 13:18:38;;;;;;;20.73;11.27;;;;;;;;;;4898110;29;20513;-90
2023/12/04 13:21:05;;;;;;;18.05;10.25;;;;;;;;;;4898286;29;20131;-92
2023/12/04 13:23:31;;;;;;;22.10;13.20;;;;;;;;;;4896284;29;20433;-90
2023/12/04 13:25:57;;;;;;;18.13;9.85;;;;;;;;;;4909519;29;20058;-89
2023/12/04 13:28:23;;;;;;;18.25;10.45;;;;;;;;;;4895700;29;20060;-87
2023/12/04 13:30:50;;;;;;;18.67;10.43;;;;;;;;;;4899572;29;20091;-89
2023/12/04 13:33:17;;;;;;;18.17;10.45;;;;;;;;;;4879809;29;20056;-89
2023/12/04 13:35:44;;;;;;;21.02;10.85;;;;;;;;;;4886871;29;20063;-90
2023/12/04 13:38:13;;;;;;;18.02;9.93;;;;;;;;;;4885862;29;20047;-87
2023/12/04 13:40:49;;;;;;;17.50;10.23;;;;;;;;;;4907899;29;20131;-88
2023/12/04 13:46:00;;;;;;;19.58;11.27;;;;;;;;;;4896907;29;20055;-89
2023/12/04 13:48:26;;;;;;;18.58;11.05;;;;;;;;;;4898770;29;20044;-89
2023/12/04 13:50:52;;;;;;;18.80;11.27;;;;;;;;;;4893578;29;20060;-87
2023/12/04 13:53:25;;;;;;;15.95;9.48;;;;;;;;;;4880739;29;20505;-88
2023/12/04 13:58:42;;;;;;;17.67;10.38;;;;;;;;;;4899254;29;20098;-88
2023/12/04 14:01:13;;;;;;;18.52;10.38;;;;;;;;;;4912720;29;20513;-88
2023/12/04 14:03:44;;;;;;;23.17;12.23;;;0.70;99.90;;;;;;4896788;29;20063;-88
2023/12/04 14:06:11;;;;;;;17.52;10.85;;;;;;;;;;4910513;29;20059;-89
2023/12/04 14:08:37;;;;;;;18.80;10.98;;;;;;;;;;4882345;29;20044;-91
2023/12/04 14:11:04;;;;;;;20.40;11.02;;;;;;;;;;4879565;29;20079;-90
2023/12/04 14:13:33;;;;;;;20.75;11.13;;;;;;;;;;4891531;29;20140;-92